createdAt,value
2022-12-14T00:01:49.219Z,15.90
2022-12-14T00:04:19.397Z,14.20
2022-12-14T00:06:47.311Z,13.77
2022-12-14T00:09:15.180Z,13.60
2022-12-14T00:11:43.169Z,16.42
2022-12-14T00:14:11.222Z,16.52
2022-12-14T00:16:39.687Z,15.05
2022-12-14T00:19:07.682Z,13.95
2022-12-14T00:21:37.389Z,12.93
2022-12-14T00:24:05.877Z,13.02
2022-12-14T00:26:34.308Z,12.73
2022-12-14T00:29:03.304Z,15.02
2022-12-14T00:31:32.398Z,13.98
2022-12-14T00:34:01.125Z,14.95
2022-12-14T00:36:31.778Z,13.68
2022-12-14T00:39:01.654Z,13.88
2022-12-14T00:41:29.676Z,12.73
2022-12-14T00:43:57.663Z,15.07
2022-12-14T00:46:26.074Z,15.45
2022-12-14T00:48:54.563Z,13.30
2022-12-14T00:51:22.612Z,11.30
2022-12-14T00:53:50.813Z,13.48
2022-12-14T00:56:20.058Z,13.75
2022-12-14T00:58:51.965Z,12.80
2022-12-14T01:01:20.799Z,14.55
2022-12-14T01:03:49.180Z,13.40
2022-12-14T01:06:18.385Z,13.35
2022-12-14T01:08:46.691Z,12.18
2022-12-14T01:11:15.338Z,12.10
2022-12-14T01:13:44.675Z,11.77
2022-12-14T01:16:17.805Z,14.00
2022-12-14T01:18:45.898Z,12.10
2022-12-14T01:21:15.944Z,13.68
2022-12-14T01:23:45.030Z,13.30
2022-12-14T01:26:14.029Z,12.43
2022-12-14T01:28:42.171Z,14.27
2022-12-14T01:31:13.060Z,12.00
2022-12-14T01:33:41.329Z,15.00
2022-12-14T01:36:11.652Z,12.80
2022-12-14T01:38:39.903Z,12.88
2022-12-14T01:41:09.222Z,15.82
2022-12-14T01:43:51.216Z,12.70
2022-12-14T01:46:26.501Z,12.75
2022-12-14T01:48:57.407Z,13.45
2022-12-14T01:51:28.051Z,15.13
2022-12-14T01:53:57.336Z,13.93
2022-12-14T01:56:25.457Z,14.80
2022-12-14T01:58:53.740Z,13.35
2022-12-14T02:01:23.348Z,17.80
2022-12-14T02:03:54.511Z,15.82
2022-12-14T02:06:27.968Z,17.52
2022-12-14T02:08:58.695Z,15.10
2022-12-14T02:11:34.492Z,15.75
2022-12-14T02:14:02.743Z,14.95
2022-12-14T02:16:33.151Z,13.68
2022-12-14T02:19:01.627Z,16.02
2022-12-14T02:21:45.147Z,13.32
2022-12-14T02:24:53.795Z,11.52
2022-12-14T02:27:45.968Z,14.27
2022-12-14T02:30:18.304Z,15.00
2022-12-14T02:33:09.835Z,14.35
2022-12-14T02:35:45.808Z,14.25
2022-12-14T02:38:28.288Z,17.88
2022-12-14T02:41:06.944Z,15.85
2022-12-14T02:43:47.342Z,15.15
2022-12-14T02:46:23.913Z,15.98
2022-12-14T02:48:59.139Z,15.07
2022-12-14T02:51:38.068Z,15.80
2022-12-14T02:54:12.745Z,19.23
2022-12-14T02:56:45.208Z,15.45
2022-12-14T02:59:15.075Z,23.13
2022-12-14T03:01:48.067Z,14.45
2022-12-14T03:04:17.653Z,15.63
2022-12-14T03:06:58.034Z,16.60
2022-12-14T03:09:29.759Z,15.73
2022-12-14T03:12:02.096Z,19.92
2022-12-14T03:14:35.384Z,15.68
2022-12-14T03:17:13.266Z,18.35
2022-12-14T03:19:49.361Z,17.17
2022-12-14T03:22:21.730Z,17.00
2022-12-14T03:24:54.848Z,24.27
2022-12-14T03:27:28.422Z,16.77
2022-12-14T03:30:00.336Z,19.05
2022-12-14T03:32:32.643Z,19.65
2022-12-14T03:35:04.570Z,19.45
2022-12-14T03:37:38.173Z,22.65
2022-12-14T03:40:10.545Z,22.50
2022-12-14T03:42:43.364Z,25.92
2022-12-14T03:45:21.381Z,21.00
2022-12-14T03:48:07.828Z,21.70
2022-12-14T03:50:40.536Z,19.35
2022-12-14T03:53:13.601Z,23.55
2022-12-14T03:55:49.248Z,20.13
2022-12-14T03:58:34.668Z,19.13
2022-12-14T04:01:14.492Z,22.83
2022-12-14T04:03:52.421Z,20.33
2022-12-14T04:06:28.466Z,20.38
2022-12-14T04:09:05.102Z,21.80
2022-12-14T04:11:56.970Z,24.42
2022-12-14T04:14:56.930Z,23.63
2022-12-14T04:17:47.464Z,25.40
2022-12-14T04:20:21.166Z,20.13
2022-12-14T04:22:57.245Z,21.17
2022-12-14T04:25:48.903Z,21.67
2022-12-14T04:28:39.842Z,18.73
2022-12-14T04:31:11.611Z,21.63
2022-12-14T04:33:50.250Z,22.02
2022-12-14T04:36:25.193Z,22.33
2022-12-14T04:39:00.086Z,20.63
2022-12-14T04:41:34.047Z,24.98
2022-12-14T04:44:07.790Z,22.35
2022-12-14T04:46:40.926Z,29.05
2022-12-14T04:49:15.204Z,24.60
2022-12-14T04:51:50.829Z,22.75
2022-12-14T04:54:24.336Z,22.25
2022-12-14T04:56:57.102Z,25.98
2022-12-14T04:59:25.805Z,26.35
2022-12-14T05:02:04.448Z,25.70
2022-12-14T05:04:54.776Z,25.75
2022-12-14T05:07:36.197Z,25.63
2022-12-14T05:10:11.356Z,24.48
2022-12-14T05:12:45.766Z,24.23
2022-12-14T05:15:16.953Z,24.75
2022-12-14T05:17:44.901Z,23.40
2022-12-14T05:20:17.927Z,28.88
2022-12-14T05:22:47.282Z,26.20
2022-12-14T05:25:15.428Z,23.95
2022-12-14T05:27:43.764Z,27.75
2022-12-14T05:30:13.189Z,26.42
2022-12-14T05:32:41.372Z,26.92
2022-12-14T05:35:10.968Z,25.55
2022-12-14T05:37:38.957Z,26.80
2022-12-14T05:40:10.739Z,23.33
2022-12-14T05:42:44.388Z,28.60
2022-12-14T05:45:14.666Z,35.17
2022-12-14T05:47:42.757Z,28.50
2022-12-14T05:50:11.526Z,28.75
2022-12-14T05:52:40.023Z,33.25
2022-12-14T05:55:10.711Z,30.83
2022-12-14T05:57:38.802Z,29.63
2022-12-14T06:00:07.530Z,31.05
2022-12-14T06:02:36.165Z,28.90
2022-12-14T06:05:04.427Z,32.55
2022-12-14T06:07:32.669Z,25.33
2022-12-14T06:10:00.675Z,28.02
2022-12-14T06:12:30.098Z,27.05
2022-12-14T06:14:58.665Z,29.88
2022-12-14T06:17:26.767Z,29.17
2022-12-14T06:19:55.187Z,31.15
2022-12-14T06:22:23.230Z,28.92
2022-12-14T06:24:51.572Z,26.38
2022-12-14T06:27:19.464Z,26.83
2022-12-14T06:29:48.779Z,28.58
2022-12-14T06:32:16.983Z,26.60
2022-12-14T06:34:47.071Z,25.98
2022-12-14T06:37:15.678Z,25.90
2022-12-14T06:39:44.036Z,30.13
2022-12-14T06:42:12.324Z,30.58
2022-12-14T06:44:40.584Z,26.00
2022-12-14T06:47:09.875Z,28.55
2022-12-14T06:49:37.747Z,25.65
2022-12-14T06:52:06.154Z,26.02
2022-12-14T06:54:34.145Z,27.20
2022-12-14T06:57:02.077Z,27.67
2022-12-14T06:59:30.509Z,29.33
2022-12-14T07:01:58.708Z,29.63
2022-12-14T07:04:28.207Z,21.70
2022-12-14T07:06:56.307Z,26.77
2022-12-14T07:09:24.245Z,27.98
2022-12-14T07:11:52.591Z,26.95
2022-12-14T07:14:20.650Z,31.92
2022-12-14T07:16:50.202Z,24.50
2022-12-14T07:19:19.298Z,23.20
2022-12-14T07:21:48.608Z,29.20
2022-12-14T07:24:17.852Z,23.38
2022-12-14T07:26:45.786Z,28.33
2022-12-14T07:29:15.064Z,30.98
2022-12-14T07:31:43.517Z,24.23
2022-12-14T07:34:13.916Z,26.88
2022-12-14T07:36:43.310Z,29.45
2022-12-14T07:39:18.557Z,26.45
2022-12-14T07:41:48.111Z,31.67
2022-12-14T07:44:16.520Z,29.23
2022-12-14T07:46:45.473Z,28.45
2022-12-14T07:49:14.121Z,22.77
2022-12-14T07:51:44.449Z,22.90
2022-12-14T07:54:14.299Z,30.60
2022-12-14T07:56:44.234Z,33.95
2022-12-14T07:59:16.140Z,27.85
2022-12-14T08:01:46.206Z,24.75
2022-12-14T08:04:16.253Z,27.42
2022-12-14T08:06:44.657Z,26.50
2022-12-14T08:09:15.587Z,25.33
2022-12-14T08:11:43.848Z,23.75
2022-12-14T08:14:14.798Z,27.15
2022-12-14T08:16:42.725Z,31.83
2022-12-14T08:19:11.799Z,28.92
2022-12-14T08:21:40.596Z,27.33
2022-12-14T08:24:10.829Z,27.73
2022-12-14T08:26:40.593Z,28.70
2022-12-14T08:29:09.427Z,27.40
2022-12-14T08:31:37.340Z,30.90
2022-12-14T08:34:05.409Z,32.17
2022-12-14T08:36:35.652Z,29.63
2022-12-14T08:39:05.634Z,35.83
2022-12-14T08:41:34.216Z,31.55
2022-12-14T08:44:04.999Z,32.53
2022-12-14T08:46:37.551Z,31.48
2022-12-14T08:49:05.904Z,32.08
2022-12-14T08:51:37.562Z,32.17
2022-12-14T08:54:05.942Z,34.88
2022-12-14T08:56:33.928Z,30.52
2022-12-14T08:59:03.278Z,34.20
2022-12-14T09:01:36.555Z,34.50
2022-12-14T09:04:06.084Z,34.67
2022-12-14T09:06:37.039Z,37.63
2022-12-14T09:09:08.180Z,40.15
2022-12-14T09:11:41.943Z,41.00
2022-12-14T09:14:12.131Z,39.53
2022-12-14T09:16:40.804Z,37.65
2022-12-14T09:19:09.247Z,46.38
2022-12-14T09:21:37.456Z,42.65
2022-12-14T09:24:07.990Z,45.35
2022-12-14T09:26:36.264Z,52.22
2022-12-14T09:29:04.670Z,48.80
2022-12-14T09:31:34.714Z,50.97
2022-12-14T09:34:03.956Z,50.28
2022-12-14T09:36:31.979Z,48.97
2022-12-14T09:39:00.200Z,48.70
2022-12-14T09:41:37.738Z,58.70
2022-12-14T09:44:18.563Z,53.47
2022-12-14T09:46:57.416Z,50.20
2022-12-14T09:49:29.170Z,52.85
2022-12-14T09:52:00.637Z,50.25
2022-12-14T09:54:33.245Z,49.78
2022-12-14T09:57:05.746Z,52.70
2022-12-14T09:59:35.218Z,54.10
2022-12-14T10:02:32.762Z,51.72
2022-12-14T10:05:18.213Z,49.03
2022-12-14T10:07:55.161Z,53.15
2022-12-14T10:10:26.615Z,58.67
2022-12-14T10:13:04.078Z,48.05
2022-12-14T10:15:40.944Z,53.38
2022-12-14T10:18:57.796Z,50.40
2022-12-14T10:21:17.066Z,46.45
2022-12-14T10:23:56.061Z,58.75
2022-12-14T10:26:30.315Z,49.67
2022-12-14T10:29:05.204Z,54.25
2022-12-14T10:31:40.714Z,53.95
2022-12-14T10:34:18.958Z,55.40
2022-12-14T10:36:54.623Z,49.15
2022-12-14T10:39:29.433Z,52.95
2022-12-14T10:42:02.563Z,56.50
2022-12-14T10:44:40.936Z,47.20
2022-12-14T10:47:15.584Z,51.28
2022-12-14T10:49:51.720Z,61.70
2022-12-14T10:52:22.389Z,61.28
2022-12-14T10:54:53.704Z,60.33
2022-12-14T10:57:23.494Z,61.70
2022-12-14T11:00:07.848Z,55.90
2022-12-14T11:02:42.683Z,63.05
2022-12-14T11:05:36.316Z,56.20
2022-12-14T11:08:07.549Z,53.25
2022-12-14T11:10:37.247Z,49.70
2022-12-14T11:13:07.571Z,58.78
2022-12-14T11:15:37.983Z,56.72
2022-12-14T11:18:20.385Z,59.80
2022-12-14T11:20:54.077Z,59.20
2022-12-14T11:23:25.824Z,59.00
2022-12-14T11:25:56.784Z,51.20
2022-12-14T11:28:36.416Z,58.13
2022-12-14T11:31:08.175Z,62.03
2022-12-14T11:33:39.622Z,59.55
2022-12-14T11:36:10.501Z,56.35
2022-12-14T11:38:38.507Z,50.67
2022-12-14T11:41:11.404Z,54.08
2022-12-14T11:43:42.767Z,54.65
2022-12-14T11:46:10.841Z,53.72
2022-12-14T11:48:49.275Z,59.15
2022-12-14T11:51:18.667Z,52.25
2022-12-14T11:54:03.003Z,53.08
2022-12-14T11:56:32.031Z,61.75
2022-12-14T11:59:01.362Z,56.13
2022-12-14T12:01:29.608Z,59.00
2022-12-14T12:04:00.790Z,53.42
2022-12-14T12:06:32.695Z,56.10
2022-12-14T12:09:02.729Z,54.92
2022-12-14T12:11:33.207Z,60.63
2022-12-14T12:14:04.414Z,58.95
2022-12-14T12:16:35.516Z,58.47
2022-12-14T12:19:12.428Z,53.83
2022-12-14T12:21:44.758Z,59.55
2022-12-14T12:24:19.723Z,59.07
2022-12-14T12:26:51.380Z,58.08
2022-12-14T12:29:25.849Z,67.00
2022-12-14T12:31:58.871Z,55.72
2022-12-14T12:39:56.553Z,54.42
2022-12-14T12:42:35.616Z,57.55
2022-12-14T12:45:12.582Z,52.58
2022-12-14T12:47:47.594Z,58.95
2022-12-14T12:50:18.532Z,55.88
2022-12-14T12:53:01.138Z,48.72
2022-12-14T12:55:33.379Z,59.08
2022-12-14T12:58:04.949Z,58.78
2022-12-14T13:00:34.059Z,53.75
2022-12-14T13:03:09.867Z,59.03
2022-12-14T13:05:47.316Z,57.35
2022-12-14T13:08:25.193Z,55.20
2022-12-14T13:11:24.654Z,54.25
2022-12-14T13:13:50.145Z,54.28
2022-12-14T13:16:27.253Z,52.50
2022-12-14T13:19:32.093Z,50.90
2022-12-14T13:21:54.274Z,48.13
2022-12-14T13:24:30.627Z,57.45
2022-12-14T13:27:27.705Z,50.67
2022-12-14T13:30:07.451Z,55.47
2022-12-14T13:32:50.743Z,53.17
2022-12-14T13:35:33.261Z,52.60
2022-12-14T13:38:38.510Z,52.10
2022-12-14T13:41:17.015Z,51.08
2022-12-14T13:44:09.367Z,54.15
2022-12-14T13:46:38.398Z,50.03
2022-12-14T13:49:09.460Z,52.38
2022-12-14T13:51:41.570Z,52.28
2022-12-14T13:54:22.865Z,50.15
2022-12-14T13:57:02.284Z,47.33
2022-12-14T13:59:34.074Z,50.25
2022-12-14T14:02:03.515Z,46.13
2022-12-14T14:04:32.650Z,44.45
2022-12-14T14:07:34.203Z,48.63
2022-12-14T14:10:05.490Z,53.92
2022-12-14T14:12:45.549Z,45.30
2022-12-14T14:15:26.571Z,53.60
2022-12-14T14:17:56.224Z,46.35
2022-12-14T14:20:42.021Z,48.22
2022-12-14T14:23:32.108Z,54.50
2022-12-14T14:26:31.322Z,42.70
2022-12-14T14:29:34.640Z,49.55
2022-12-14T14:32:06.242Z,40.95
2022-12-14T14:34:40.524Z,47.75
2022-12-14T14:37:17.249Z,44.30
2022-12-14T14:39:57.668Z,47.88
2022-12-14T14:42:30.795Z,44.50
2022-12-14T14:45:03.963Z,50.83
2022-12-14T14:47:34.715Z,49.03
2022-12-14T14:50:06.566Z,49.28
2022-12-14T14:53:01.058Z,49.40
2022-12-14T14:55:58.200Z,46.30
2022-12-14T14:58:29.943Z,44.25
2022-12-14T15:01:21.276Z,47.97
2022-12-14T15:03:55.324Z,48.05
2022-12-14T15:06:27.064Z,47.05
2022-12-14T15:09:00.990Z,47.47
2022-12-14T15:11:37.367Z,46.30
2022-12-14T15:14:18.419Z,47.60
2022-12-14T15:16:47.864Z,45.20
2022-12-14T15:19:38.536Z,42.60
2022-12-14T15:22:09.037Z,42.05
2022-12-14T15:24:40.273Z,49.88
2022-12-14T15:27:18.497Z,47.42
2022-12-14T15:29:49.414Z,39.90
2022-12-14T15:32:22.595Z,42.17
2022-12-14T15:37:27.957Z,40.35
2022-12-14T15:40:09.082Z,43.17
2022-12-14T15:42:46.983Z,44.13
2022-12-14T15:45:17.658Z,43.47
2022-12-14T15:47:49.251Z,45.70
2022-12-14T15:50:29.649Z,32.58
2022-12-14T15:53:00.278Z,39.67
2022-12-14T15:55:33.393Z,38.70
2022-12-14T15:58:08.401Z,42.00
2022-12-14T16:00:41.867Z,39.58
2022-12-14T16:03:23.894Z,40.45
2022-12-14T16:05:52.446Z,39.45
2022-12-14T16:08:22.660Z,38.75
2022-12-14T16:10:52.724Z,42.00
2022-12-14T16:13:24.900Z,42.40
2022-12-14T16:15:54.661Z,44.33
2022-12-14T16:18:26.549Z,47.70
2022-12-14T16:20:58.827Z,45.47
2022-12-14T16:23:31.423Z,38.95
2022-12-14T16:26:01.320Z,41.15
2022-12-14T16:28:33.816Z,39.30
2022-12-14T16:31:06.709Z,39.88
2022-12-14T16:36:08.256Z,33.40
2022-12-14T16:38:41.904Z,37.22
2022-12-14T16:41:14.509Z,34.45
2022-12-14T16:43:43.362Z,41.28
2022-12-14T16:46:18.703Z,41.13
2022-12-14T16:49:23.217Z,44.13
2022-12-14T16:52:07.741Z,43.78
2022-12-14T16:54:37.843Z,38.60
2022-12-14T16:57:09.293Z,35.25
2022-12-14T16:59:43.109Z,38.70
2022-12-14T17:02:29.903Z,45.00
2022-12-14T17:05:01.242Z,37.85
2022-12-14T17:07:33.029Z,45.78
2022-12-14T17:10:01.122Z,39.58
2022-12-14T17:12:29.191Z,43.53
2022-12-14T17:14:57.350Z,44.72
2022-12-14T17:17:32.280Z,44.03
2022-12-14T17:20:02.291Z,44.28
2022-12-14T17:22:33.359Z,48.83
2022-12-14T17:25:02.686Z,48.00
2022-12-14T17:27:31.272Z,45.80
2022-12-14T17:29:59.237Z,46.53
2022-12-14T17:32:30.705Z,40.13
2022-12-14T17:35:01.813Z,51.75
2022-12-14T17:37:36.469Z,45.30
2022-12-14T17:40:07.484Z,49.72
2022-12-14T17:42:39.604Z,46.28
2022-12-14T17:45:18.480Z,49.15
2022-12-14T17:51:31.080Z,45.03
2022-12-14T17:54:01.585Z,42.78
2022-12-14T17:56:30.058Z,42.28
2022-12-14T17:58:58.583Z,43.35
2022-12-14T18:01:27.349Z,48.67
2022-12-14T18:03:55.519Z,42.40
2022-12-14T18:06:23.828Z,45.72
2022-12-14T18:08:51.933Z,45.33
2022-12-14T18:11:24.332Z,44.95
2022-12-14T18:13:52.482Z,48.80
2022-12-14T18:16:23.241Z,44.45
2022-12-14T18:18:53.908Z,49.33
2022-12-14T18:21:24.032Z,50.03
2022-12-14T18:23:52.395Z,48.30
2022-12-14T18:26:22.649Z,44.55
2022-12-14T18:28:53.122Z,49.40
2022-12-14T18:31:24.933Z,48.65
2022-12-14T18:33:53.624Z,45.17
2022-12-14T18:36:22.698Z,50.08
2022-12-14T18:38:52.120Z,47.45
2022-12-14T18:41:24.689Z,54.83
2022-12-14T18:43:54.295Z,50.17
2022-12-14T18:46:23.006Z,39.63
2022-12-14T18:48:51.249Z,47.70
2022-12-14T18:51:23.480Z,46.17
2022-12-14T18:53:53.615Z,43.95
2022-12-14T18:56:24.019Z,42.50
2022-12-14T18:58:52.768Z,48.65
2022-12-14T19:01:23.719Z,41.85
2022-12-14T19:03:52.567Z,40.53
2022-12-14T19:09:11.279Z,51.00
2022-12-14T19:11:43.163Z,56.85
2022-12-14T19:14:11.573Z,62.20
2022-12-14T19:16:39.833Z,50.97
2022-12-14T19:19:07.999Z,51.78
2022-12-14T19:21:36.006Z,48.65
2022-12-14T19:24:04.142Z,49.10
2022-12-14T19:26:32.338Z,49.85
2022-12-14T19:29:01.894Z,51.72
2022-12-14T19:31:29.886Z,51.60
2022-12-14T19:33:58.034Z,50.38
2022-12-14T19:36:27.708Z,47.83
2022-12-14T19:38:55.701Z,53.53
2022-12-14T19:41:24.404Z,50.05
2022-12-14T19:43:52.396Z,51.97
2022-12-14T19:46:23.657Z,45.88
2022-12-14T19:48:52.100Z,50.78
2022-12-14T19:51:21.528Z,48.83
2022-12-14T19:53:49.624Z,53.47
2022-12-14T19:56:19.060Z,47.03
2022-12-14T19:58:47.738Z,45.83
2022-12-14T20:01:17.669Z,49.47
2022-12-14T20:03:49.167Z,46.42
2022-12-14T20:06:17.289Z,50.72
2022-12-14T20:08:45.837Z,69.22
2022-12-14T20:11:17.826Z,63.85
2022-12-14T20:13:45.756Z,56.22
2022-12-14T20:16:17.082Z,51.95
2022-12-14T20:18:47.328Z,63.00
2022-12-14T20:21:21.639Z,51.88
2022-12-14T20:23:50.501Z,53.60
2022-12-14T20:26:21.470Z,47.90
2022-12-14T20:28:50.394Z,53.08
2022-12-14T20:31:19.056Z,48.28
2022-12-14T20:33:48.382Z,45.03
2022-12-14T20:36:18.632Z,51.88
2022-12-14T20:38:49.140Z,45.92
2022-12-14T20:41:17.868Z,53.83
2022-12-14T20:43:46.557Z,53.40
2022-12-14T20:46:27.036Z,63.10
2022-12-14T20:48:57.171Z,54.22
2022-12-14T20:51:26.016Z,66.15
2022-12-14T20:53:53.989Z,56.20
2022-12-14T20:56:22.067Z,53.08
2022-12-14T20:58:50.227Z,49.70
2022-12-14T21:01:20.661Z,50.38
2022-12-14T21:03:50.287Z,62.22
2022-12-14T21:06:21.368Z,61.00
2022-12-14T21:09:11.582Z,66.68
2022-12-14T21:11:59.927Z,60.80
2022-12-14T21:14:30.066Z,59.75
2022-12-14T21:16:58.644Z,58.63
2022-12-14T21:19:27.401Z,54.90
2022-12-14T21:21:56.935Z,59.13
2022-12-14T21:24:53.134Z,63.15
2022-12-14T21:27:18.286Z,53.72
2022-12-14T21:29:46.845Z,65.15
2022-12-14T21:32:16.152Z,49.40
2022-12-14T21:34:44.839Z,43.90
2022-12-14T21:37:15.686Z,51.75
2022-12-14T21:39:49.007Z,49.38
2022-12-14T21:42:20.810Z,42.33
2022-12-14T21:44:50.200Z,51.67
2022-12-14T21:47:20.618Z,51.25
2022-12-14T21:49:49.123Z,52.83
2022-12-14T21:52:21.323Z,48.38
2022-12-14T21:54:49.524Z,51.97
2022-12-14T21:57:37.391Z,44.20
2022-12-14T22:00:07.095Z,49.45
2022-12-14T22:02:35.461Z,52.42
2022-12-14T22:05:04.570Z,49.33
2022-12-14T22:07:35.019Z,51.95
2022-12-14T22:10:03.382Z,56.15
2022-12-14T22:12:31.554Z,42.90
2022-12-14T22:15:00.262Z,47.08
2022-12-14T22:17:28.283Z,49.88
2022-12-14T22:19:56.223Z,47.63
2022-12-14T22:22:24.575Z,55.85
2022-12-14T22:24:53.814Z,51.50
2022-12-14T22:27:22.168Z,47.53
2022-12-14T22:29:50.218Z,43.47
2022-12-14T22:32:18.565Z,50.92
2022-12-14T22:34:50.428Z,48.33
2022-12-14T22:37:18.559Z,49.92
2022-12-14T22:39:48.110Z,51.47
2022-12-14T22:42:17.790Z,49.47
2022-12-14T22:44:45.708Z,47.28
2022-12-14T22:47:13.774Z,49.92
2022-12-14T22:49:41.847Z,46.05
2022-12-14T22:52:10.113Z,48.95
2022-12-14T22:54:39.978Z,52.58
2022-12-14T22:57:13.409Z,46.25
2022-12-14T22:59:46.991Z,51.38
2022-12-14T23:02:16.488Z,49.28
2022-12-14T23:04:45.880Z,51.72
2022-12-14T23:07:18.161Z,50.90
2022-12-14T23:10:04.099Z,55.40
2022-12-14T23:12:49.717Z,52.80
2022-12-14T23:15:36.856Z,52.95
2022-12-14T23:18:24.352Z,55.22
2022-12-14T23:21:11.181Z,57.55
2022-12-14T23:23:57.909Z,51.00
2022-12-14T23:26:43.198Z,51.33
2022-12-14T23:29:28.995Z,55.65
2022-12-14T23:32:16.005Z,68.70
2022-12-14T23:35:01.447Z,53.13
2022-12-14T23:37:47.075Z,50.33
2022-12-14T23:40:32.417Z,48.78
2022-12-14T23:43:26.825Z,47.05
2022-12-14T23:46:12.718Z,55.95
2022-12-14T23:48:59.406Z,45.92
2022-12-14T23:51:44.979Z,49.63
2022-12-14T23:54:30.891Z,48.28
2022-12-14T23:57:16.402Z,46.42
